• Join FlightAware (Why Join?)
  • Login
  • US Flag 
10:22PM EDT


 

Airport Tracker/Info


-or-


 

Live Flight TrackerFlight Track Log ✈ CSN450 ✈ 20-Jul-2013 ✈ CYVR - ZSPD / PVG

Flight Track Log - Related Links

Times and Time Zones

All times are in EDT time to prevent confusion due to time zone crossing. See the CSN450 flight status page for this flight to view local times or setup timezone preferences in your user account.

Time Position Orientation Groundspeed Altitude Reporting Facility
EDT Latitude Longitude Course Direction KTS MPH feet Rate Location/Type
10:02PM 49.1920 -123.1880 143° Southeast 17 20  Level FlightAware
10:03PM 49.1910 -123.1860 127° Southeast 19 22  Level FlightAware
10:04PM 49.1890 -123.1820 127° Southeast 12 14  Level FlightAware
10:04PM 49.1890 -123.1810 90° East 12 14 60 Level FlightAware
10:04PM 49.1890 -123.1780 90° East 18 21 60 Level FlightAware
10:05PM 49.1880 -123.1750 117° Southeast 22 25 60 Level FlightAware
10:05PM 49.1880 -123.1720 90° East 23 26 60 Level FlightAware
10:06PM 49.1870 -123.1660 104° East 25 29 60 Level FlightAware
10:06PM 49.1870 -123.1650 90° East 25 29 120 Level FlightAware
10:06PM 49.1870 -123.1630 90° East 13 15 120 Level FlightAware
10:06PM 49.1860 -123.1620 147° Southeast 13 15 120 Level FlightAware
10:07PM 49.1850 -123.1610 147° Southeast 12 14 120 Level FlightAware
10:07PM 49.1850 -123.1650 270° West 60 69 180 Level FlightAware
10:08PM 49.1880 -123.1870 282° West 170 196 420 Level FlightAware
10:08PM 49.1900 -123.2040 280° West 185 213 300 2,460 Climbing FlightAware
10:09PM 49.1950 -123.2420 281° West 181 208 1,700 2,580 Climbing FlightAware
10:09PM 49.1990 -123.2710 282° West 182 209 2,700 2,400 Climbing FlightAware
10:09PM 49.2020 -123.2930 282° West 180 207 3,300 1,560 Climbing FlightAware
10:10PM 49.2070 -123.3330 281° West 211 243 3,900 1,200 Climbing FlightAware
10:10PM 49.2160 -123.3800 286° West 250 288 4,500 2,040 Climbing FlightAware
10:13PM 49.4035 -123.7321 309° West  Level FlightAware Approximate
10:13PM 49.3190 -123.6350 309° West 305 351 10,600  Level FlightAware
10:14PM 49.3670 -123.7570 301° West 358 412 12,000 2,280 Climbing FlightAware
10:14PM 49.4060 -123.8570 301° West 368 423 14,000 2,580 Climbing FlightAware
10:15PM 49.4410 -123.9470 301° West 379 436 15,700 2,400 Climbing FlightAware
10:16PM 49.4820 -124.0540 301° West 391 450 17,400 2,220 Climbing FlightAware
10:17PM 49.5190 -124.1510 300° West 404 465 18,900 2,280 Climbing FlightAware
10:17PM 49.5520 -124.2360 301° West 411 473 20,300 2,100 Climbing FlightAware
10:18PM 49.5960 -124.3510 301° West 426 490 21,700 1,740 Climbing FlightAware
10:19PM 49.6360 -124.4560 300° West 441 507 22,800 1,800 Climbing FlightAware
10:19PM 49.6790 -124.5690 300° West 453 521 24,100 1,860 Climbing FlightAware
10:20PM 49.7200 -124.6780 300° West 462 532 25,300 1,800 Climbing FlightAware
10:21PM 49.7700 -124.8090 301° West 470 541 26,700 1,620 Climbing FlightAware
10:21PM 49.8200 -124.9410 300° West 483 556 27,800 1,500 Climbing FlightAware
10:22PM 49.8530 -125.0310 300° West 489 563 28,600 1,560 Climbing FlightAware
10:23PM 49.9040 -125.1680 300° West 497 572 29,800 1,740 Climbing FlightAware
10:23PM 49.9480 -125.2870 300° West 498 573 31,100 1,440 Climbing FlightAware
10:24PM 50.0040 -125.4390 300° West 491 565 32,000 600 Climbing FlightAware
10:25PM 50.0470 -125.5570 300° West 492 566 32,000  Level FlightAware
10:26PM 50.1010 -125.7030 300° West 491 565 32,000  Level FlightAware
10:26PM 50.1510 -125.8240 303° West 493 567 32,000  Level FlightAware
10:27PM 50.2150 -125.9660 305° West 492 566 32,000  Level FlightAware
10:28PM 50.2780 -126.1040 306° West 491 565 32,000  Level FlightAware
10:29PM 50.3380 -126.2360 305° West 491 565 32,000  Level FlightAware
10:30PM 50.4130 -126.4010 306° West 492 566 32,000  Level FlightAware
10:30PM 50.4590 -126.5030 305° West 492 566 32,000  Level FlightAware
10:31PM 50.5370 -126.6790 305° West 491 565 32,000  Level FlightAware
10:32PM 50.6020 -126.8240 305° West 490 564 32,000  Level FlightAware
10:33PM 50.6900 -127.0250 305° West 489 563 32,000  Level FlightAware
10:34PM 50.7370 -127.1310 305° West 488 562 32,000  Level FlightAware
10:35PM 50.8120 -127.3030 305° West 488 562 32,000  Level FlightAware
10:35PM 50.8690 -127.4370 304° West 487 560 32,000  Level FlightAware
10:36PM 50.9140 -127.5380 305° West 487 560 32,000  Level FlightAware
10:37PM 50.9530 -127.6270 305° West 487 560 32,000  Level FlightAware
10:38PM 51.0060 -127.7470 305° West 487 560 32,000  Level FlightAware
10:38PM 51.0450 -127.8370 305° West 487 560 32,000  Level FlightAware
10:39PM 51.0850 -127.9270 305° West 487 560 32,000  Level FlightAware
10:40PM 51.1380 -128.0470 305° West 487 560 32,000  Level FlightAware
10:40PM 51.1770 -128.1370 305° West 487 560 32,000  Level FlightAware
10:41PM 51.2300 -128.2570 305° West 487 560 32,000  Level FlightAware
10:42PM 51.2700 -128.3470 305° West 487 560 32,000  Level FlightAware
10:42PM 51.3220 -128.4680 305° West 487 560 32,000  Level FlightAware
10:43PM 51.3580 -128.5500 305° West 487 560 32,000  Level FlightAware
10:44PM 51.3990 -128.6430 305° West 487 560 32,000  Level FlightAware
10:44PM 51.4520 -128.7640 305° West 487 560 32,000  Level FlightAware
10:45PM 51.4910 -128.8550 305° West 487 560 32,000  Level FlightAware
10:46PM 51.5310 -128.9460 305° West 487 560 32,000  Level FlightAware
10:47PM 51.6833 -129.4500 305° West 480 552 32,000  Level Vancouver Center
10:48PM 51.7500 -129.6333 300° West 480 552 32,000  Level Vancouver Center
10:49PM 51.8333 -129.8000 309° West 480 552 32,000  Level Vancouver Center
10:50PM 51.9000 -130.0000 298° West 480 552 32,000  Level Vancouver Center
10:51PM 51.9667 -130.1667 303° West 480 552 32,000  Level Vancouver Center
10:52PM 52.0333 -130.3500 301° West 480 552 32,000  Level Vancouver Center
10:53PM 52.1000 -130.5500 299° West 480 552 32,000  Level Vancouver Center
10:54PM 52.1833 -130.7167 309° West 480 552 32,000  Level Vancouver Center
10:55PM 52.2500 -130.9167 299° West 480 552 32,000  Level Vancouver Center
10:56PM 52.3000 -131.1000 294° West 480 552 32,000  Level Vancouver Center
10:57PM 52.3833 -131.2667 309° West 470 541 32,000  Level Vancouver Center
10:58PM 52.4500 -131.4833 297° West 470 541 32,000  Level Vancouver Center
10:59PM 52.5167 -131.6500 303° West 470 541 32,000 240 Level Vancouver Center
11:00PM 52.5833 -131.8333 301° West 470 541 32,500 960 Climbing Vancouver Center
11:01PM 52.6500 -132.0167 301° West 470 541 34,000 720 Climbing Vancouver Center
11:02PM 52.7167 -132.2167 299° West 460 529 34,000  Level Vancouver Center
11:03PM 52.7667 -132.4000 294° West 460 529 34,000  Level Vancouver Center
11:04PM 52.8500 -132.5667 310° West 460 529 34,000  Level Vancouver Center
11:05PM 52.9167 -132.7500 301° West 460 529 34,000  Level Vancouver Center
11:06PM 52.9667 -132.9333 294° West 460 529 34,000  Level Vancouver Center
11:07PM 53.0333 -133.1167 301° West 460 529 34,000  Level Vancouver Center
11:08PM 53.0833 -133.3000 294° West 460 529 34,000  Level Vancouver Center
11:09PM 53.1667 -133.4833 307° West 460 529 34,000  Level Vancouver Center
11:10PM 53.2167 -133.6500 297° West 460 529 34,000  Level Vancouver Center
11:11PM 53.2833 -133.8333 301° West 460 529 34,000  Level Vancouver Center
11:11PM 53.3167 -133.8833 318° Northwest 460 529 34,000  Level Anchorage Center
11:12PM 53.3833 -134.0833 299° West 450 518 34,000  Level Anchorage Center
11:13PM 53.4000 -134.2000 284° West 450 518 34,000  Level Vancouver Center
11:13PM 53.4500 -134.2667 322° Northwest 450 518 34,000  Level Anchorage Center
11:14PM 53.5000 -134.4500 295° West 450 518 34,000  Level Anchorage Center
11:15PM 53.5667 -134.6333 302° West 450 518 34,000  Level Anchorage Center
11:16PM 53.6167 -134.8167 295° West 460 529 34,000  Level Anchorage Center
11:17PM 53.6833 -135.0167 299° West 460 529 34,000  Level Anchorage Center
11:18PM 53.7500 -135.2000 302° West 460 529 34,000  Level Anchorage Center
11:19PM 53.8000 -135.3833 295° West 450 518 34,000  Level Anchorage Center
11:20PM 53.8667 -135.5667 302° West 460 529 34,000  Level Anchorage Center
11:21PM 53.9167 -135.7667 293° West 450 518 34,000  Level Anchorage Center
11:22PM 53.9833 -135.9500 302° West 450 518 34,000  Level Anchorage Center
11:23PM 54.0333 -136.1500 293° West 460 529 34,000  Level Anchorage Center
11:24PM 54.1000 -136.3333 302° West 450 518 34,000  Level Anchorage Center
11:25PM 54.1667 -136.5167 302° West 450 518 34,000  Level Anchorage Center
11:26PM 54.2167 -136.6833 297° West 450 518 34,000  Level Anchorage Center
11:27PM 54.2667 -136.8667 295° West 440 506 34,000  Level Anchorage Center
11:28PM 54.3333 -137.0500 302° West 450 518 34,000  Level Anchorage Center
11:29PM 54.3833 -137.2500 293° West 450 518 34,000  Level Anchorage Center
11:30PM 54.4500 -137.4333 302° West 450 518 34,000  Level Anchorage Center
11:31PM 54.5000 -137.6167 295° West 440 506 34,000  Level Anchorage Center
11:32PM 54.5667 -137.8167 300° West 440 506 34,000  Level Anchorage Center
11:33PM 54.6167 -138.0000 295° West 440 506 34,000  Level Anchorage Center
11:34PM 54.6667 -138.1833 295° West 430 495 34,000  Level Anchorage Center
11:35PM 54.7167 -138.3667 295° West 430 495 34,000  Level Anchorage Center
11:36PM 54.7833 -138.5667 300° West 440 506 34,000  Level Anchorage Center
11:37PM 54.8333 -138.7500 295° West 430 495 34,000  Level Anchorage Center
11:38PM 54.8833 -138.9333 295° West 440 506 34,000  Level Anchorage Center
11:39PM 54.9500 -139.1167 302° West 420 483 34,000  Level Anchorage Center
11:40PM 55.0000 -139.3167 294° West 430 495 34,000  Level Anchorage Center
11:42PM 55.0667 -139.6500 289° West 430 495 34,000  Level Vancouver Center
11:43PM 55.1167 -139.8500 294° West 430 495 34,000  Level Vancouver Center
11:43PM 55.1500 -139.8667 344° North 420 483 34,000  Level Anchorage Center
11:45PM 55.2667 -140.2833 296° West 420 483 34,000  Level Anchorage Center
11:46PM 55.3167 -140.4833 294° West 440 506 34,000  Level Anchorage Center
11:47PM 55.3833 -140.6667 303° West 450 518 34,000  Level Anchorage Center
11:48PM 55.4167 -140.8500 288° West 410 472 34,000  Level Anchorage Center
11:49PM 55.4667 -141.0333 296° West 410 472 34,000  Level Anchorage Center
11:50PM 55.5167 -141.2333 294° West 430 495 34,000  Level Anchorage Center
11:51PM 55.5667 -141.4167 296° West 420 483 34,000  Level Anchorage Center
11:52PM 55.6167 -141.6167 294° West 440 506 34,000  Level Anchorage Center
11:53PM 55.6667 -141.8000 296° West 420 483 34,000  Level Anchorage Center
11:54PM 55.7167 -141.9833 296° West 410 472 34,000  Level Anchorage Center
11:55PM 55.7500 -142.1833 287° West 420 483 34,000  Level Anchorage Center
11:56PM 55.8167 -142.3667 303° West 430 495 34,000  Level Anchorage Center
11:57PM 55.8500 -142.5333 290° West 400 460 34,000  Level Anchorage Center
11:58PM 55.8833 -142.7167 288° West 430 495 34,000  Level Anchorage Center
11:59PM 55.9333 -142.9167 294° West 420 483 34,000  Level Anchorage Center
12:00AM 55.9833 -143.1167 294° West 410 472 34,000  Level Anchorage Center
12:01AM 56.0167 -143.3000 288° West 410 472 34,000  Level Anchorage Center
12:02AM 56.0667 -143.5000 294° West 410 472 34,000  Level Anchorage Center
12:05AM 56.1196 -143.7252 293° West  Level FlightAware Approximate
12:08AM 56.3000 -144.4833 291° West 390 449 34,000  Level Anchorage Center
12:09AM 56.3333 -144.6667 288° West 400 460 34,000  Level Anchorage Center
12:10AM 56.3833 -144.8500 296° West 400 460 34,000  Level Anchorage Center
12:11AM 56.4167 -145.0500 287° West 400 460 34,000  Level Anchorage Center
12:12AM 56.4635 -145.2411 291° West  Level FlightAware Approximate
12:12AM 56.4667 -145.2333 296° West 410 472 34,000  Level Anchorage Center
12:13AM 56.5101 -145.4607 291° West  Level FlightAware Approximate
12:13AM 56.5000 -145.4333 287° West 410 472 34,000  Level Anchorage Center
12:14AM 56.5333 -145.6167 288° West 400 460 34,000  Level Anchorage Center
12:15AM 56.5833 -145.8167 294° West 400 460 34,000  Level Anchorage Center
12:16AM 56.6167 -146.0000 288° West 410 472 34,000  Level Anchorage Center
12:17AM 56.6667 -146.2000 295° West 400 460 34,000  Level Anchorage Center
12:18AM 56.7000 -146.3833 288° West 400 460 34,000  Level Anchorage Center
12:19AM 56.7333 -146.5667 288° West 400 460 34,000  Level Anchorage Center
12:20AM 56.7833 -146.7667 295° West 410 472 34,000  Level Anchorage Center
12:21AM 56.8167 -146.9667 287° West 410 472 34,000  Level Anchorage Center
12:22AM 56.8500 -147.1667 287° West 410 472 34,000  Level Anchorage Center
12:23AM 56.8833 -147.3500 288° West 400 460 34,000  Level Anchorage Center
12:24AM 56.9333 -147.5500 295° West 390 449 34,000  Level Anchorage Center
12:25AM 56.9667 -147.7500 287° West 410 472 34,000  Level Anchorage Center
12:26AM 57.0000 -147.9333 289° West 400 460 34,000  Level Anchorage Center
12:27AM 57.0333 -148.1333 287° West 410 472 34,000  Level Anchorage Center
12:28AM 57.0833 -148.3333 295° West 400 460 34,000  Level Anchorage Center
12:29AM 57.1167 -148.5333 287° West 410 472 34,000  Level Anchorage Center
12:30AM 57.1500 -148.7333 287° West 400 460 34,000  Level Anchorage Center
12:31AM 57.1833 -148.9333 287° West 400 460 34,000  Level Anchorage Center
12:32AM 57.2167 -149.1167 289° West 400 460 34,000  Level Anchorage Center
12:33AM 57.2500 -149.3167 287° West 400 460 34,000  Level Anchorage Center
12:34AM 57.2833 -149.5167 287° West 390 449 34,000  Level Anchorage Center
12:35AM 57.3167 -149.7167 287° West 400 460 34,000  Level Anchorage Center
12:36AM 57.3500 -149.9167 287° West 400 460 34,000  Level Anchorage Center
12:37AM 57.3833 -150.1000 289° West 400 460 34,000  Level Anchorage Center
12:38AM 57.4167 -150.3000 287° West 390 449 34,000  Level Anchorage Center
12:39AM 57.4500 -150.5000 287° West 390 449 34,000  Level Anchorage Center
12:40AM 57.4833 -150.7000 287° West 410 472 34,000  Level Anchorage Center
12:41AM 57.5167 -150.9000 287° West 390 449 34,000  Level Anchorage Center
12:42AM 57.5500 -151.1167 286° West 380 437 34,000  Level Anchorage Center
12:43AM 57.5667 -151.3167 279° West 400 460 34,000  Level Anchorage Center
12:44AM 57.6000 -151.5000 289° West 380 437 34,000  Level Anchorage Center
12:45AM 57.6333 -151.7000 287° West 390 449 34,000  Level Anchorage Center
12:46AM 57.6500 -151.9000 279° West 390 449 34,000  Level Anchorage Center
12:47AM 57.6833 -152.1000 287° West 390 449 34,000  Level Anchorage Center
12:48AM 57.7167 -152.3000 287° West 380 437 34,000  Level Anchorage Center
12:49AM 57.7333 -152.4833 280° West 390 449 34,000  Level Anchorage Center
12:50AM 57.7667 -152.6833 287° West 390 449 34,000  Level Anchorage Center
12:51AM 57.7833 -152.8833 279° West 390 449 34,000  Level Anchorage Center
12:52AM 57.8167 -153.0833 287° West 390 449 34,000  Level Anchorage Center
12:53AM 57.8500 -153.2833 287° West 400 460 34,000  Level Anchorage Center
12:54AM 57.8667 -153.4833 279° West 390 449 34,000  Level Anchorage Center
12:55AM 57.9000 -153.7000 286° West 400 460 34,000  Level Anchorage Center
12:56AM 57.9167 -153.9000 279° West 390 449 34,000  Level Anchorage Center
12:57AM 57.9500 -154.1000 288° West 390 449 34,000  Level Anchorage Center
12:58AM 57.9667 -154.3000 279° West 390 449 34,000  Level Anchorage Center
12:59AM 58.0000 -154.5000 288° West 390 449 34,000  Level Anchorage Center
01:00AM 58.0167 -154.7000 279° West 390 449 34,000  Level Anchorage Center
01:01AM 58.0333 -154.9000 279° West 380 437 34,000  Level Anchorage Center
01:02AM 58.0667 -155.1000 288° West 390 449 34,000  Level Anchorage Center
01:03AM 58.0833 -155.3167 278° West 390 449 34,000  Level Anchorage Center
01:04AM 58.1167 -155.5167 288° West 390 449 34,000  Level Anchorage Center
01:05AM 58.1333 -155.7167 279° West 400 460 34,000  Level Anchorage Center
01:06AM 58.1500 -155.9333 278° West 400 460 34,000  Level Anchorage Center
01:07AM 58.1833 -156.1333 288° West 400 460 34,000  Level Anchorage Center
01:08AM 58.2000 -156.3500 278° West 400 460 34,000  Level Anchorage Center
01:09AM 58.2167 -156.5500 279° West 400 460 34,000  Level Anchorage Center
01:10AM 58.2333 -156.7667 278° West 400 460 34,000  Level Anchorage Center
01:11AM 58.2667 -156.9833 286° West 400 460 34,000  Level Anchorage Center
01:12AM 58.2833 -157.1833 279° West 400 460 34,000  Level Anchorage Center
01:13AM 58.3000 -157.4000 278° West 410 472 34,000  Level Anchorage Center
01:14AM 58.3167 -157.6167 278° West 410 472 34,000  Level Anchorage Center
01:15AM 58.3333 -157.8333 278° West 400 460 34,000  Level Anchorage Center
01:16AM 58.3667 -158.0333 288° West 390 449 34,000  Level Anchorage Center
01:17AM 58.3833 -158.2500 278° West 400 460 34,000  Level Anchorage Center
01:18AM 58.4000 -158.4667 278° West 410 472 34,000  Level Anchorage Center
01:19AM 58.4167 -158.6833 278° West 400 460 34,000  Level Anchorage Center
01:20AM 58.4333 -158.9000 278° West 410 472 34,000  Level Anchorage Center
01:21AM 58.4500 -159.1167 278° West 410 472 34,000  Level Anchorage Center
01:22AM 58.4667 -159.3333 278° West 410 472 34,000  Level Anchorage Center
01:23AM 58.4833 -159.5667 278° West 410 472 34,000  Level Anchorage Center
01:24AM 58.5000 -159.7833 278° West 410 472 34,000  Level Anchorage Center
01:25AM 58.5167 -160.0000 278° West 410 472 34,000  Level Anchorage Center
01:26AM 58.5333 -160.2167 278° West 410 472 34,000  Level Anchorage Center
01:27AM 58.5500 -160.4333 278° West 410 472 34,000  Level Anchorage Center
01:28AM 58.5667 -160.6667 278° West 410 472 34,000  Level Anchorage Center
01:29AM 58.5833 -160.8833 278° West 410 472 34,000  Level Anchorage Center
01:30AM 58.6000 -161.1000 278° West 410 472 34,000  Level Anchorage Center
01:31AM 58.6000 -161.3167 270° West 420 483 34,000  Level Anchorage Center
01:32AM 58.6167 -161.5500 278° West 410 472 34,000  Level Anchorage Center
01:33AM 58.6333 -161.7667 278° West 410 472 34,000  Level Anchorage Center
01:34AM 58.6500 -162.0333 277° West 440 506 34,000  Level Anchorage Center
01:35AM 58.6667 -162.2667 278° West 430 495 34,000  Level Anchorage Center
01:36AM 58.6667 -162.5000 270° West 420 483 34,000  Level Anchorage Center
01:37AM 58.6833 -162.7167 279° West 450 518 34,000  Level Anchorage Center
01:38AM 58.6833 -162.9500 270° West 430 495 34,000  Level Anchorage Center
01:39AM 58.7000 -163.1833 278° West 440 506 34,000  Level Anchorage Center
01:40AM 58.7000 -163.4167 270° West 430 495 34,000  Level Anchorage Center
01:41AM 58.7167 -163.6500 278° West 430 495 34,000  Level Anchorage Center
01:42AM 58.7167 -163.8833 270° West 440 506 34,000  Level Anchorage Center
01:43AM 58.7333 -164.1167 278° West 430 495 34,000  Level Anchorage Center
01:44AM 58.7333 -164.3500 270° West 440 506 34,000  Level Anchorage Center
01:45AM 58.7500 -164.5833 278° West 440 506 34,000  Level Anchorage Center
01:46AM 58.7500 -164.8167 270° West 430 495 34,000  Level Anchorage Center
01:47AM 58.7667 -165.0667 277° West 440 506 34,000  Level Anchorage Center
01:48AM 58.7667 -165.3000 270° West 440 506 34,000  Level Anchorage Center
01:49AM 58.7667 -165.5333 270° West 440 506 34,000  Level Anchorage Center
01:50AM 58.7833 -165.7667 278° West 440 506 34,000  Level Anchorage Center
01:51AM 58.7833 -166.0000 270° West 440 506 34,000  Level Anchorage Center
01:52AM 58.7833 -166.2333 270° West 440 506 34,000  Level Anchorage Center
01:53AM 58.7833 -166.4833 270° West 440 506 34,000  Level Anchorage Center
01:54AM 58.7833 -166.7167 270° West 440 506 34,000  Level Anchorage Center
01:55AM 58.7833 -166.9333 270° West 430 495 34,000  Level Anchorage Center
01:56AM 58.7833 -167.1667 270° West 430 495 34,000  Level Anchorage Center
01:57AM 58.8000 -167.4000 278° West 450 518 34,000  Level Anchorage Center
01:58AM 58.8000 -167.6500 270° West 440 506 34,000  Level Anchorage Center
01:59AM 58.8000 -167.8833 270° West 440 506 34,000  Level Anchorage Center
02:00AM 58.8000 -168.1333 270° West 450 518 34,000  Level Anchorage Center
02:01AM 58.8000 -168.3667 270° West 450 518 34,000  Level Anchorage Center
02:02AM 58.8000 -168.6167 270° West 450 518 34,000  Level Anchorage Center
02:03AM 58.8000 -168.8500 270° West 450 518 34,000  Level Anchorage Center
02:04AM 58.8000 -169.1000 270° West 450 518 34,000  Level Anchorage Center
02:05AM 58.8000 -169.3500 270° West 460 529 34,000  Level Anchorage Center
02:06AM 58.7833 -169.6000 263° West 460 529 34,000  Level Anchorage Center
02:07AM 58.7833 -169.8500 270° West 460 529 34,000  Level Anchorage Center
02:08AM 58.7833 -170.1000 270° West 460 529 34,000  Level Anchorage Center
02:09AM 58.7833 -170.3500 270° West 470 541 34,000  Level Anchorage Center
02:10AM 58.7833 -170.6000 270° West 460 529 34,000  Level Anchorage Center
02:11AM 58.7667 -170.8500 263° West 460 529 34,000  Level Anchorage Center
02:12AM 58.7667 -171.1000 270° West 470 541 34,000  Level Anchorage Center
02:13AM 58.7667 -171.3500 270° West 460 529 34,000  Level Anchorage Center
02:14AM 58.7500 -171.6000 263° West 460 529 34,000  Level Anchorage Center
02:15AM 58.7333 -171.8500 263° West 470 541 34,000  Level Anchorage Center
02:16AM 58.7167 -172.1000 263° West 460 529 34,000  Level Anchorage Center
02:17AM 58.7167 -172.3500 270° West 460 529 34,000  Level Anchorage Center
02:18AM 58.7000 -172.6000 263° West 470 541 34,000  Level Anchorage Center
02:19AM 58.6833 -172.8500 263° West 470 541 34,000  Level Anchorage Center
02:20AM 58.6667 -173.1000 263° West 470 541 34,000  Level Anchorage Center
02:21AM 58.6500 -173.3500 263° West 480 552 34,000  Level Anchorage Center
02:22AM 58.6333 -173.6167 263° West 480 552 34,000  Level Anchorage Center
02:23AM 58.6167 -173.8667 263° West 480 552 34,000  Level Anchorage Center
02:24AM 58.6000 -174.1333 263° West 490 564 34,000  Level Anchorage Center
02:25AM 58.5833 -174.3833 263° West 480 552 34,000  Level Anchorage Center
02:26AM 58.5667 -174.6500 263° West 490 564 34,000  Level Anchorage Center
02:27AM 58.5500 -174.9000 263° West 480 552 34,000  Level Anchorage Center
02:28AM 58.5333 -175.1667 263° West 490 564 34,000  Level Anchorage Center
02:29AM 58.5167 -175.4167 263° West 490 564 34,000  Level Anchorage Center
02:30AM 58.5000 -175.6833 263° West 490 564 34,000  Level Anchorage Center
02:31AM 58.4667 -175.9333 256° West 490 564 34,000  Level Anchorage Center
02:32AM 58.4500 -176.2000 263° West 490 564 34,000  Level Anchorage Center
02:33AM 58.4333 -176.4500 263° West 490 564 34,000  Level Anchorage Center
02:34AM 58.4000 -176.7167 257° West 500 575 34,000  Level Anchorage Center
02:35AM 58.3833 -176.9667 263° West 490 564 34,000  Level Anchorage Center
02:36AM 58.3500 -177.1833 254° West 490 564 34,000  Level Anchorage Center
02:38AM 58.2766 -177.4786 245° Southwest  Level FlightAware Approximate
02:45AM 57.8800 -179.0086 245° Southwest  Level FlightAware Approximate
02:46AM 57.8218 -179.2243 243° Southwest  Level FlightAware Approximate
02:47AM 57.7633 -179.4394 243° Southwest  Level FlightAware Approximate
02:48AM 57.7044 -179.6538 243° Southwest  Level FlightAware Approximate
02:49AM 57.6452 -179.8675 243° Southwest  Level FlightAware Approximate
02:50AM 57.5856 179.9195 243° Southwest  Level FlightAware Approximate
02:51AM 57.5257 179.7072 242° Southwest  Level FlightAware Approximate
02:52AM 57.4654 179.4956 242° Southwest  Level FlightAware Approximate
02:52AM 57.3500 179.0833 242° Southwest 501 577 34,000  Level Anchorage Center
02:53AM 57.4047 179.2847 242° Southwest  Level FlightAware Approximate
02:54AM 57.3437 179.0745 242° Southwest  Level FlightAware Approximate
02:55AM 57.2823 178.8650 242° Southwest  Level FlightAware Approximate
02:56AM 57.2206 178.6562 241° Southwest  Level FlightAware Approximate
02:57AM 57.1586 178.4481 241° Southwest  Level FlightAware Approximate
02:58AM 57.0962 178.2407 241° Southwest  Level FlightAware Approximate
02:59AM 56.8992 177.5640 241° Southwest 501 577 34,000  Level FlightAware Transoceanic
03:00AM 56.8333 177.3500 240° Southwest 501 577 34,000  Level FlightAware Transoceanic
03:00AM 56.8333 177.3500 240° Southwest 501 577 34,000  Level Anchorage Center
03:01AM 56.7619 177.1252 240° Southwest 501 577 34,000  Level FlightAware Transoceanic
03:02AM 56.6901 176.9012 240° Southwest 501 577 34,000  Level FlightAware Transoceanic
03:03AM 56.6179 176.6781 239° Southwest 501 577 34,000  Level FlightAware Transoceanic
03:04AM 56.5453 176.4558 239° Southwest 501 577 34,000  Level FlightAware Transoceanic
03:05AM 56.4723 176.2344 239° Southwest 501 577 34,000  Level FlightAware Transoceanic
03:06AM 56.4159 176.0647 239° Southwest 501 577 34,000  Level FlightAware Transoceanic
03:07AM 56.3451 175.8532 239° Southwest 501 577 34,000  Level FlightAware Transoceanic
03:08AM 56.2738 175.6425 239° Southwest 501 577 34,000  Level FlightAware Transoceanic
03:09AM 56.2023 175.4327 238° Southwest 501 577 34,000  Level FlightAware Transoceanic
03:10AM 56.1304 175.2236 238° Southwest 501 577 34,000  Level FlightAware Transoceanic
03:11AM 56.0581 175.0152 238° Southwest 501 577 34,000 1,920 Level FlightAware Transoceanic
03:11AM 56.0500 175.0167 237° Southwest 500 575 36,000  Climbing Anchorage Center
03:12AM 55.9855 174.8077 238° Southwest 501 577 34,000  Descending FlightAware Transoceanic
03:12AM 55.9833 174.8167 239° Southwest 500 575 36,000  Climbing Anchorage Center
03:13AM 55.9125 174.6009 238° Southwest 501 577 34,000  Descending FlightAware Transoceanic
03:13AM 55.9000 174.6000 236° Southwest 500 575 36,000  Climbing Anchorage Center
03:14AM 55.8392 174.3950 238° Southwest 501 577 34,000  Descending FlightAware Transoceanic
03:14AM 55.8333 174.4167 237° Southwest 490 564 36,000  Climbing Anchorage Center
03:15AM 55.7655 174.1897 237° Southwest 501 577 34,000  Descending FlightAware Transoceanic
03:15AM 55.7500 174.1833 238° Southwest 500 575 36,000  Climbing Anchorage Center
03:16AM 55.6915 173.9853 237° Southwest 501 577 34,000  Descending FlightAware Transoceanic
03:16AM 55.6667 173.9500 238° Southwest 500 575 36,000 1,860 Climbing Anchorage Center
03:17AM 55.6000 173.7667 237° Southwest 510 587 36,000  Level Anchorage Center
03:18AM 55.5167 173.5500 236° Southwest 510 587 36,000  Level Anchorage Center
03:19AM 55.4500 173.3667 237° Southwest 510 587 36,000  Level Anchorage Center
03:20AM 55.3667 173.1333 238° Southwest 520 598 36,000  Level Anchorage Center
03:21AM 55.3000 172.9500 237° Southwest 520 598 36,000  Level Anchorage Center
03:22AM 55.2167 172.7167 238° Southwest 520 598 36,000  Level Anchorage Center
03:23AM 55.1333 172.5333 232° Southwest 530 610 36,000  Level Anchorage Center
03:24AM 55.0500 172.3167 236° Southwest 510 587 36,000  Level Anchorage Center
03:25AM 54.9667 172.0833 238° Southwest 520 598 36,000  Level Anchorage Center
03:26AM 54.8833 171.9000 232° Southwest 530 610 36,000  Level Anchorage Center
03:27AM 54.8000 171.6667 238° Southwest 520 598 36,000  Level Anchorage Center
03:28AM 54.7333 171.5000 235° Southwest 510 587 36,000  Level Anchorage Center
03:29AM 54.6333 171.2833 231° Southwest 520 598 36,000  Level Anchorage Center
03:30AM 54.5667 171.1167 235° Southwest 510 587 36,000  Level Anchorage Center
03:31AM 54.4667 170.8833 234° Southwest 520 598 36,000  Level Anchorage Center
03:32AM 54.3667 170.6667 232° Southwest 540 621 36,000  Level Anchorage Center
03:33AM 54.3000 170.5000 236° Southwest 510 587 36,000  Level Anchorage Center
03:34AM 54.2000 170.2833 232° Southwest 530 610 36,000  Level Anchorage Center
03:35AM 54.1333 170.1167 236° Southwest 510 587 36,000  Level Anchorage Center
03:36AM 54.0333 169.9000 232° Southwest 520 598 36,000  Level Anchorage Center
03:37AM 53.9667 169.7333 236° Southwest 510 587 36,000  Level Anchorage Center
03:38AM 53.8667 169.5167 232° Southwest 530 610 36,000  Level Anchorage Center
03:39AM 53.8000 169.3500 236° Southwest 500 575 36,000  Level Anchorage Center
03:40AM 53.7000 169.1333 232° Southwest 540 621 36,000  Level Anchorage Center
03:41AM 53.6167 168.9000 239° Southwest 550 633 36,000  Level Anchorage Center
03:42AM 53.5667 168.7167 245° Southwest 520 598 36,000  Level Anchorage Center
03:43AM 53.5000 168.5167 241° Southwest 530 610 36,000  Level Anchorage Center
03:44AM 53.4167 168.2333 240° Southwest 518 596 36,000  Level Anchorage Center
03:45AM 53.3000 167.9000 239° Southwest 514 592 36,000  Level Anchorage Center
03:50AM 52.9830 167.0175 239° Southwest 518 596 36,000  Level FlightAware Transoceanic
03:51AM 52.9096 166.8173 239° Southwest 518 596 36,000  Level FlightAware Transoceanic
03:52AM 52.8594 166.6811 238° Southwest 514 592 36,000  Level FlightAware Transoceanic
03:53AM 52.7847 166.4804 238° Southwest 514 592 36,000  Level FlightAware Transoceanic
03:54AM 52.7098 166.2804 238° Southwest 514 592 36,000  Level FlightAware Transoceanic
03:55AM 52.6344 166.0810 238° Southwest 514 592 36,000  Level FlightAware Transoceanic
03:56AM 52.5588 165.8824 238° Southwest 514 592 36,000  Level FlightAware Transoceanic
03:57AM 52.4828 165.6844 238° Southwest 514 592 36,000  Level FlightAware Transoceanic
03:58AM 52.4065 165.4871 238° Southwest 514 592 36,000  Level FlightAware Transoceanic
03:59AM 52.3299 165.2905 237° Southwest 514 592 36,000  Level FlightAware Transoceanic
04:00AM 52.2529 165.0946 237° Southwest 514 592 36,000  Level FlightAware Transoceanic
04:01AM 52.1757 164.8993 237° Southwest 514 592 36,000  Level FlightAware Transoceanic
04:02AM 52.0981 164.7048 237° Southwest 514 592 36,000  Level FlightAware Transoceanic
04:03AM 52.0201 164.5109 237° Southwest 514 592 36,000  Level FlightAware Transoceanic
04:04AM 51.9419 164.3177 237° Southwest 514 592 36,000  Level FlightAware Transoceanic
04:05AM 51.8633 164.1251 236° Southwest 514 592 36,000  Level FlightAware Transoceanic
04:06AM 51.7845 163.9333 236° Southwest 514 592 36,000  Level FlightAware Transoceanic
04:07AM 51.7053 163.7421 236° Southwest 514 592 36,000  Level FlightAware Transoceanic
04:07AM 51.6500 163.6500 236° Southwest 505 581 36,000  Level Anchorage Center
04:08AM 51.6258 163.5515 236° Southwest 514 592 36,000  Level FlightAware Transoceanic
04:09AM 51.5460 163.3617 236° Southwest 514 592 36,000  Level FlightAware Transoceanic
04:10AM 51.4659 163.1725 236° Southwest 514 592 36,000  Level FlightAware Transoceanic
04:11AM 51.3855 162.9839 236° Southwest 514 592 36,000  Level FlightAware Transoceanic
04:12AM 51.3048 162.7961 235° Southwest 514 592 36,000  Level FlightAware Transoceanic
04:12AM 51.2667 162.7333 236° Southwest 496 571 36,000  Level Anchorage Center
04:13AM 51.2605 162.7247 236° Southwest 505 581 36,000  Level FlightAware Transoceanic
04:14AM 51.1817 162.5416 235° Southwest 505 581 36,000  Level FlightAware Transoceanic
04:15AM 51.1026 162.3590 235° Southwest 505 581 36,000  Level FlightAware Transoceanic
04:16AM 51.0233 162.1771 235° Southwest 505 581 36,000  Level FlightAware Transoceanic
04:17AM 50.9436 161.9958 235° Southwest 505 581 36,000  Level FlightAware Transoceanic
04:18AM 50.8120 161.6949 235° Southwest 496 571 36,000  Level FlightAware Transoceanic
04:19AM 50.7354 161.5238 235° Southwest 496 571 36,000  Level FlightAware Transoceanic
04:20AM 50.6585 161.3533 234° Southwest 496 571 36,000  Level FlightAware Transoceanic
04:21AM 50.5813 161.1833 234° Southwest 496 571 36,000  Level FlightAware Transoceanic
04:22AM 50.5039 161.0139 234° Southwest 496 571 36,000  Level FlightAware Transoceanic
04:23AM 50.4263 160.8450 234° Southwest 496 571 36,000  Level FlightAware Transoceanic
04:24AM 50.3484 160.6767 234° Southwest 496 571 36,000  Level FlightAware Transoceanic
04:25AM 50.2702 160.5090 234° Southwest 496 571 36,000  Level FlightAware Transoceanic
04:26AM 50.1919 160.3418 234° Southwest 496 571 36,000  Level FlightAware Transoceanic
04:26AM 50.2000 160.3833 234° Southwest 480 552 36,000  Level Anchorage Center
04:27AM 50.1133 160.1751 234° Southwest 496 571 36,000  Level FlightAware Transoceanic
04:28AM 50.0344 160.0090 233° Southwest 496 571 36,000  Level FlightAware Transoceanic
04:29AM 49.9553 159.8434 233° Southwest 496 571 36,000  Level FlightAware Transoceanic
04:30AM 49.8760 159.6784 233° Southwest 496 571 36,000  Level FlightAware Transoceanic
04:31AM 49.7965 159.5139 233° Southwest 496 571 36,000  Level FlightAware Transoceanic
04:32AM 49.7167 159.3500 233° Southwest 480 552 36,000  Level FlightAware Transoceanic
04:33AM 49.6356 159.1846 233° Southwest 480 552 36,000  Level FlightAware Transoceanic
04:34AM 49.5544 159.0198 233° Southwest 480 552 36,000  Level FlightAware Transoceanic
04:35AM 49.4729 158.8555 233° Southwest 480 552 36,000  Level FlightAware Transoceanic
04:36AM 49.3912 158.6918 232° Southwest 480 552 36,000  Level FlightAware Transoceanic
04:37AM 49.3092 158.5286 232° Southwest 480 552 36,000  Level FlightAware Transoceanic
04:38AM 49.2270 158.3659 232° Southwest 480 552 36,000  Level FlightAware Transoceanic
04:39AM 49.1446 158.2038 232° Southwest 480 552 36,000  Level FlightAware Transoceanic
04:40AM 49.0619 158.0422 232° Southwest 480 552 36,000  Level FlightAware Transoceanic
04:41AM 48.9791 157.8812 232° Southwest 480 552 36,000  Level FlightAware Transoceanic
04:42AM 48.8960 157.7207 232° Southwest 480 552 36,000  Level FlightAware Transoceanic
04:43AM 48.8127 157.5607 232° Southwest 480 552 36,000  Level FlightAware Transoceanic
04:44AM 48.7291 157.4013 231° Southwest 480 552 36,000  Level FlightAware Transoceanic
04:45AM 48.6454 157.2424 231° Southwest 480 552 36,000  Level FlightAware Transoceanic
04:46AM 48.5614 157.0840 231° Southwest 480 552 36,000  Level FlightAware Transoceanic
04:47AM 48.4772 156.9262 231° Southwest 480 552 36,000  Level FlightAware Transoceanic
04:48AM 48.3928 156.7688 231° Southwest 480 552 36,000  Level FlightAware Transoceanic
04:49AM 48.3082 156.6120 231° Southwest 480 552 36,000  Level FlightAware Transoceanic
04:50AM 48.2234 156.4557 231° Southwest 480 552 36,000  Level FlightAware Transoceanic
04:51AM 48.1383 156.3000 231° Southwest 480 552 36,000  Level FlightAware Transoceanic
04:52AM 48.0531 156.1447 231° Southwest 480 552 36,000  Level FlightAware Transoceanic
04:53AM 47.9676 155.9900 230° Southwest 480 552 36,000  Level FlightAware Transoceanic
04:54AM 47.8820 155.8358 230° Southwest 480 552 36,000  Level FlightAware Transoceanic
04:55AM 47.7961 155.6820 230° Southwest 480 552 36,000  Level FlightAware Transoceanic
04:56AM 47.7100 155.5288 230° Southwest 480 552 36,000  Level FlightAware Transoceanic
04:57AM 47.6237 155.3761 230° Southwest 480 552 36,000  Level FlightAware Transoceanic
04:58AM 47.5373 155.2239 230° Southwest 480 552 36,000  Level FlightAware Transoceanic
04:59AM 47.4506 155.0722 230° Southwest 480 552 36,000  Level FlightAware Transoceanic
05:00AM 47.3637 154.9210 230° Southwest 480 552 36,000  Level FlightAware Transoceanic
05:01AM 47.2766 154.7703 230° Southwest 480 552 36,000  Level FlightAware Transoceanic
05:02AM 47.1893 154.6201 229° Southwest 480 552 36,000  Level FlightAware Transoceanic
05:03AM 47.1019 154.4704 229° Southwest 480 552 36,000  Level FlightAware Transoceanic
05:04AM 47.0142 154.3212 229° Southwest 480 552 36,000  Level FlightAware Transoceanic
05:05AM 46.9263 154.1725 229° Southwest 480 552 36,000  Level FlightAware Transoceanic
05:06AM 46.8383 154.0242 229° Southwest 480 552 36,000  Level FlightAware Transoceanic
05:07AM 46.7501 153.8765 229° Southwest 480 552 36,000  Level FlightAware Transoceanic
05:08AM 46.6616 153.7292 229° Southwest 480 552 36,000  Level FlightAware Transoceanic
05:09AM 46.5730 153.5824 229° Southwest 480 552 36,000  Level FlightAware Transoceanic
05:10AM 46.4842 153.4361 229° Southwest 480 552 36,000  Level FlightAware Transoceanic
05:11AM 46.3952 153.2903 228° Southwest 480 552 36,000  Level FlightAware Transoceanic
05:12AM 46.3060 153.1449 228° Southwest 480 552 36,000  Level FlightAware Transoceanic
05:13AM 46.2207 153.0065 228° Southwest  Level FlightAware Approximate
05:14AM 46.1351 152.8685 228° Southwest  Level FlightAware Approximate
05:15AM 46.1387 152.8756 228° Southwest  Level FlightAware Approximate
05:16AM 46.0525 152.7387 228° Southwest  Level FlightAware Approximate
05:17AM 45.9661 152.6022 228° Southwest  Level FlightAware Approximate
05:18AM 45.8796 152.4662 228° Southwest  Level FlightAware Approximate
05:19AM 45.7929 152.3306 228° Southwest  Level FlightAware Approximate
05:20AM 45.7060 152.1954 227° Southwest  Level FlightAware Approximate
05:21AM 45.6190 152.0606 227° Southwest  Level FlightAware Approximate
05:22AM 45.5318 151.9262 227° Southwest  Level FlightAware Approximate
05:23AM 45.4445 151.7923 227° Southwest  Level FlightAware Approximate
05:24AM 45.3570 151.6588 227° Southwest  Level FlightAware Approximate
05:25AM 45.2693 151.5257 227° Southwest  Level FlightAware Approximate
05:26AM 45.1815 151.3930 227° Southwest  Level FlightAware Approximate
05:27AM 45.0936 151.2607 227° Southwest  Level FlightAware Approximate
05:28AM 45.0055 151.1288 227° Southwest  Level FlightAware Approximate
05:29AM 44.9172 150.9973 227° Southwest  Level FlightAware Approximate
05:30AM 44.8288 150.8662 226° Southwest  Level FlightAware Approximate
05:31AM 44.7403 150.7355 226° Southwest  Level FlightAware Approximate
05:32AM 44.6516 150.6053 226° Southwest  Level FlightAware Approximate
05:33AM 44.5627 150.4754 226° Southwest  Level FlightAware Approximate
05:34AM 44.4737 150.3459 226° Southwest  Level FlightAware Approximate
05:35AM 44.3846 150.2168 226° Southwest  Level FlightAware Approximate
05:36AM 44.2953 150.0881 226° Southwest  Level FlightAware Approximate
05:37AM 44.2059 149.9598 226° Southwest  Level FlightAware Approximate
05:38AM 44.1163 149.8319 226° Southwest  Level FlightAware Approximate
05:39AM 44.0266 149.7044 226° Southwest  Level FlightAware Approximate
05:40AM 43.9367 149.5773 226° Southwest  Level FlightAware Approximate
05:41AM 43.8467 149.4505 225° Southwest  Level FlightAware Approximate
05:42AM 43.7566 149.3241 225° Southwest  Level FlightAware Approximate
05:43AM 43.6663 149.1982 225° Southwest  Level FlightAware Approximate
05:44AM 43.5759 149.0725 225° Southwest  Level FlightAware Approximate
05:45AM 43.4854 148.9473 225° Southwest  Level FlightAware Approximate
05:46AM 43.3947 148.8224 225° Southwest  Level FlightAware Approximate
05:46AM 43.4360 148.8790 225° Southwest 483 556 37,000  Level FlightAware
05:46AM 43.3800 148.8030 225° Southwest 477 549 37,000  Level FlightAware
05:47AM 43.3180 148.7180 225° Southwest 482 555 37,000  Level FlightAware
05:48AM 43.2250 148.5900 225° Southwest 485 558 37,000  Level FlightAware
05:49AM 43.1520 148.4900 225° Southwest 487 560 37,000  Level FlightAware
05:49AM 43.0870 148.4020 225° Southwest 487 560 37,000  Level FlightAware
05:50AM 43.0130 148.3030 224° Southwest 486 559 37,000  Level FlightAware
05:51AM 42.9420 148.2070 225° Southwest 493 567 37,000  Level FlightAware
05:51AM 42.8850 148.1300 225° Southwest 496 571 37,000  Level FlightAware
05:52AM 42.8100 148.0290 225° Southwest 497 572 37,000  Level FlightAware
05:53AM 42.7630 147.9670 224° Southwest 498 573 37,000  Level FlightAware
05:53AM 42.6880 147.8670 224° Southwest 500 575 37,000  Level FlightAware
05:54AM 42.6190 147.7760 224° Southwest 496 571 37,000  Level FlightAware
05:55AM 42.5450 147.6780 224° Southwest 498 573 37,000  Level FlightAware
05:56AM 42.4800 147.5920 224° Southwest 499 574 37,000  Level FlightAware
05:56AM 42.4190 147.5120 224° Southwest 503 579 37,000  Level FlightAware
05:57AM 42.3510 147.4240 224° Southwest 512 589 37,000  Level FlightAware
05:57AM 42.2930 147.3470 224° Southwest 514 592 37,000  Level FlightAware
05:58AM 42.2250 147.2580 224° Southwest 516 594 37,000  Level FlightAware
05:59AM 42.1470 147.1570 224° Southwest 517 595 37,000  Level FlightAware
05:59AM 42.0770 147.0670 224° Southwest 517 595 37,000  Level FlightAware
06:00AM 42.0160 146.9880 224° Southwest 514 592 37,000  Level FlightAware
06:01AM 41.9290 146.8760 224° Southwest 515 593 37,000  Level FlightAware
06:02AM 41.8610 146.7880 224° Southwest 516 594 37,000  Level FlightAware
06:02AM 41.7920 146.6990 224° Southwest 516 594 37,000  Level FlightAware
06:03AM 41.7210 146.6090 223° Southwest 514 592 37,000  Level FlightAware
06:04AM 41.6520 146.5220 223° Southwest 514 592 37,000  Level FlightAware
06:04AM 41.5730 146.4210 224° Southwest 514 592 37,000  Level FlightAware
06:05AM 41.5050 146.3350 223° Southwest 514 592 37,000  Level FlightAware
06:06AM 41.4350 146.2460 224° Southwest 513 590 37,000  Level FlightAware
06:06AM 41.3890 146.1900 222° Southwest 512 589 37,000  Level FlightAware
06:07AM 41.3210 146.1030 224° Southwest 514 592 37,000  Level FlightAware
06:07AM 41.2510 146.0150 223° Southwest 515 593 37,000  Level FlightAware
06:08AM 41.1800 145.9270 223° Southwest 516 594 37,000  Level FlightAware
06:09AM 41.1100 145.8400 223° Southwest 515 593 37,000  Level FlightAware
06:10AM 41.0120 145.7190 223° Southwest 524 603 37,000  Level FlightAware
06:10AM 40.9410 145.6310 223° Southwest 525 604 37,000  Level FlightAware
06:13AM 40.7309 145.3697 223° Southwest  Level FlightAware Approximate
06:13AM 40.6940 145.3280 223° Southwest 530 610 37,000  Level FlightAware
06:14AM 40.5650 145.1720 223° Southwest 534 615 37,000  Level FlightAware
06:14AM 40.5040 145.0970 223° Southwest 534 615 37,000  Level FlightAware
06:15AM 40.4130 144.9740 226° Southwest 537 618 37,000  Level FlightAware
06:16AM 40.3440 144.8330 237° Southwest 528 608 37,000  Level FlightAware
06:17AM 40.2830 144.7030 238° Southwest 526 605 37,000  Level FlightAware
06:18AM 40.2320 144.5950 238° Southwest 522 601 37,000  Level FlightAware
06:18AM 40.1950 144.5140 239° Southwest 522 601 37,000  Level FlightAware
06:19AM 40.1320 144.3830 238° Southwest 521 600 37,000  Level FlightAware
06:21AM 40.0050 144.1140 238° Southwest 517 595 37,000  Level FlightAware
06:21AM 39.9670 144.0360 238° Southwest 517 595 37,000  Level FlightAware
06:22AM 39.9050 143.9070 238° Southwest 491 565 37,000  Level FlightAware
06:22AM 39.8660 143.8250 238° Southwest 489 563 37,000  Level FlightAware
06:23AM 39.8310 143.7530 238° Southwest 489 563 37,000  Level FlightAware
06:24AM 39.7820 143.6510 238° Southwest 489 563 37,000  Level FlightAware
06:24AM 39.7460 143.5740 239° Southwest 489 563 37,000  Level FlightAware
06:25AM 39.7110 143.5020 238° Southwest 489 563 37,000  Level FlightAware
06:26AM 39.6620 143.4000 238° Southwest 489 563 37,000  Level FlightAware
06:26AM 39.5630 143.2010 237° Southwest 510 587 37,000  Level FlightAware
06:27AM 39.5060 143.0860 237° Southwest 509 586 37,000  Level FlightAware
06:28AM 39.4500 142.9710 238° Southwest 509 586 37,000  Level FlightAware
06:29AM 39.3980 142.8680 237° Southwest 508 585 37,000  Level FlightAware
06:29AM 39.3480 142.7660 238° Southwest 507 583 37,000  Level FlightAware
06:30AM 39.2970 142.6640 237° Southwest 506 582 37,000  Level FlightAware
06:31AM 39.2460 142.5630 237° Southwest 508 585 37,000  Level FlightAware
06:31AM 39.1880 142.4670 232° Southwest 506 582 37,000  Level FlightAware
06:32AM 39.1270 142.3760 229° Southwest 502 578 37,000  Level FlightAware
06:33AM 39.0590 142.2730 230° Southwest 501 577 37,000  Level FlightAware
06:33AM 38.9970 142.1800 229° Southwest 500 575 37,000  Level FlightAware
06:34AM 38.9380 142.0920 229° Southwest 497 572 37,000  Level FlightAware
06:35AM 38.8770 142.0010 229° Southwest 499 574 37,000  Level FlightAware
06:35AM 38.8170 141.9130 229° Southwest 498 573 37,000  Level FlightAware
06:36AM 38.7570 141.8230 229° Southwest 497 572 37,000  Level FlightAware
06:37AM 38.6960 141.7330 229° Southwest 498 573 37,000  Level FlightAware
06:37AM 38.6350 141.6440 229° Southwest 497 572 37,000  Level FlightAware
06:38AM 38.5760 141.5560 229° Southwest 496 571 37,000  Level FlightAware
06:39AM 38.5110 141.4550 231° Southwest 484 557 37,000  Level FlightAware
06:39AM 38.4720 141.3680 240° Southwest 474 545 37,000 600 Level FlightAware
06:40AM 38.4400 141.2640 249° West 473 544 37,800 720 Climbing FlightAware
06:41AM 38.4100 141.1580 250° West 473 544 38,000 120 Climbing FlightAware
06:41AM 38.3800 141.0560 249° West 472 543 38,000  Level FlightAware
06:42AM 38.3500 140.9510 250° West 472 543 38,000  Level FlightAware
06:43AM 38.3190 140.8470 249° West 472 543 38,000  Level FlightAware
06:43AM 38.2830 140.7280 249° West 476 548 38,000  Level FlightAware
06:44AM 38.2490 140.6240 247° West 476 548 38,000  Level FlightAware
06:45AM 38.2120 140.5080 248° West 478 550 38,000  Level FlightAware
06:45AM 38.1830 140.4170 248° West 477 549 38,000  Level FlightAware
06:46AM 38.1480 140.3070 248° West 477 549 38,000  Level FlightAware
06:47AM 38.1160 140.2060 248° West 477 549 38,000  Level FlightAware
06:48AM 38.0770 140.0850 248° West 477 549 38,000  Level FlightAware
06:48AM 38.0440 139.9820 248° West 478 550 38,000  Level FlightAware
06:49AM 38.0060 139.8680 247° West 480 552 38,000  Level FlightAware
06:50AM 37.9740 139.7680 248° West 480 552 38,000  Level FlightAware
06:50AM 37.9350 139.6510 247° West 481 554 38,000  Level FlightAware
06:51AM 37.8980 139.5380 247° West 483 556 38,000  Level FlightAware
06:52AM 37.8660 139.4390 248° West 481 554 38,000  Level FlightAware
06:53AM 37.8290 139.3280 247° West 479 551 38,000  Level FlightAware
06:53AM 37.7910 139.2150 247° West 479 551 38,000  Level FlightAware
06:54AM 37.7570 139.1120 247° West 478 550 38,000  Level FlightAware
06:55AM 37.7240 139.0140 247° West 477 549 38,000  Level FlightAware
06:55AM 37.6950 138.9290 247° West 481 554 38,000  Level FlightAware
06:56AM 37.6610 138.8270 247° West 480 552 38,000  Level FlightAware
06:56AM 37.6250 138.7190 247° West 480 552 38,000  Level FlightAware
06:57AM 37.5920 138.6230 247° West 479 551 38,000  Level FlightAware
06:58AM 37.5410 138.4730 247° West 478 550 38,000  Level FlightAware
06:59AM 37.5070 138.3730 247° West 478 550 38,000  Level FlightAware
06:59AM 37.4680 138.2610 246° West 477 549 38,000  Level FlightAware
07:00AM 37.4350 138.1630 247° West 477 549 38,000  Level FlightAware
07:01AM 37.3940 138.0450 246° West 477 549 38,000  Level FlightAware
07:01AM 37.3590 137.9450 246° West 476 548 38,000  Level FlightAware
07:02AM 37.3190 137.8300 246° West 475 547 38,000  Level FlightAware
07:03AM 37.2840 137.7300 246° West 476 548 38,000  Level FlightAware
07:04AM 37.2440 137.6150 246° West 475 547 38,000  Level FlightAware
07:04AM 37.2090 137.5160 246° West 475 547 38,000  Level FlightAware
07:05AM 37.1770 137.4260 246° West 476 548 38,000  Level FlightAware
07:06AM 37.1420 137.3270 246° West 476 548 38,000  Level FlightAware
07:06AM 37.1010 137.2130 246° West 478 550 38,000  Level FlightAware
07:07AM 37.0710 137.1280 246° West 479 551 38,000  Level FlightAware
07:07AM 37.0380 137.0360 246° West 481 554 38,000  Level FlightAware
07:08AM 37.0020 136.9360 246° West 481 554 38,000  Level FlightAware
07:09AM 36.9600 136.8200 246° West 480 552 38,000  Level FlightAware
07:10AM 36.9240 136.7190 246° West 482 555 38,000  Level FlightAware
07:10AM 36.8820 136.6060 245° Southwest 482 555 38,000  Level FlightAware
07:12AM 36.8120 136.4130 246° West 482 555 38,000  Level FlightAware
07:13AM 36.7400 136.2180 245° Southwest 481 554 38,000  Level FlightAware
07:14AM 36.7000 136.1090 245° Southwest 481 554 38,000  Level FlightAware
07:14AM 36.6620 136.0060 245° Southwest 481 554 38,000  Level FlightAware
07:15AM 36.6190 135.8890 245° Southwest 481 554 38,000  Level FlightAware
07:16AM 36.5770 135.7760 245° Southwest 481 554 38,000  Level FlightAware
07:17AM 36.5340 135.6630 245° Southwest 478 550 38,000  Level FlightAware
07:17AM 36.4980 135.5660 245° Southwest 477 549 38,000  Level FlightAware
07:18AM 36.4610 135.4680 245° Southwest 476 548 38,000  Level FlightAware
07:19AM 36.4240 135.3710 245° Southwest 476 548 38,000  Level FlightAware
07:19AM 36.3820 135.2580 245° Southwest 476 548 38,000  Level FlightAware
07:20AM 36.3340 135.1320 245° Southwest 476 548 38,000  Level FlightAware
07:21AM 36.2980 135.0390 244° Southwest 476 548 38,000  Level FlightAware
07:21AM 36.2630 134.9480 245° Southwest 476 548 38,000  Level FlightAware
07:22AM 36.2090 134.8080 244° Southwest 476 548 38,000  Level FlightAware
07:23AM 36.1660 134.6960 245° Southwest 476 548 38,000  Level FlightAware
07:24AM 36.1250 134.5890 245° Southwest 475 547 38,000  Level FlightAware
07:25AM 36.0770 134.4670 244° Southwest 475 547 38,000  Level FlightAware
07:25AM 36.0380 134.3670 244° Southwest 475 547 38,000  Level FlightAware
07:26AM 35.9940 134.2550 244° Southwest 475 547 38,000  Level FlightAware
07:27AM 35.9610 134.1710 244° Southwest 475 547 38,000  Level FlightAware
07:27AM 35.9260 134.0820 244° Southwest 476 548 38,000  Level FlightAware
07:28AM 35.8800 133.9640 244° Southwest 477 549 38,000  Level FlightAware
07:29AM 35.8460 133.8780 244° Southwest 477 549 38,000  Level FlightAware
07:29AM 35.8110 133.7900 244° Southwest 477 549 38,000  Level FlightAware
07:30AM 35.7730 133.6960 244° Southwest 477 549 38,000  Level FlightAware
07:31AM 35.7360 133.6010 244° Southwest 478 550 38,000  Level FlightAware
07:31AM 35.6910 133.4890 244° Southwest 476 548 38,000  Level FlightAware
07:32AM 35.6570 133.4050 244° Southwest 474 545 38,000  Level FlightAware
07:33AM 35.6140 133.2980 244° Southwest 474 545 38,000  Level FlightAware
07:34AM 35.5600 133.1640 244° Southwest 474 545 38,000  Level FlightAware
07:34AM 35.5160 133.0710 240° Southwest 470 541 38,000  Level FlightAware
07:35AM 35.4630 132.9840 233° Southwest 474 545 38,000  Level FlightAware
07:36AM 35.3830 132.8580 232° Southwest 474 545 38,000  Level FlightAware
07:37AM 35.3220 132.7620 232° Southwest 474 545 38,000  Level FlightAware
07:37AM 35.2650 132.6720 232° Southwest 474 545 38,000  Level FlightAware
07:38AM 35.2100 132.5840 233° Southwest 474 545 38,000  Level FlightAware
07:39AM 35.1490 132.4880 232° Southwest 473 544 38,000  Level FlightAware
07:39AM 35.0980 132.4090 232° Southwest 474 545 38,000  Level FlightAware
07:40AM 35.0350 132.3100 232° Southwest 472 543 38,000  Level FlightAware
07:41AM 34.9820 132.2270 232° Southwest 474 545 38,000  Level FlightAware
07:42AM 34.9270 132.1420 232° Southwest 474 545 38,000  Level FlightAware
07:42AM 34.8650 132.0470 232° Southwest 475 547 38,000  Level FlightAware
07:43AM 34.8220 131.9790 232° Southwest 475 547 38,000  Level FlightAware
07:44AM 34.7630 131.8890 231° Southwest 477 549 38,000  Level FlightAware
07:44AM 34.6950 131.7840 232° Southwest 477 549 38,000  Level FlightAware
07:45AM 34.6330 131.6890 232° Southwest 478 550 38,000  Level FlightAware
07:46AM 34.5710 131.5940 232° Southwest 478 550 38,000  Level FlightAware
07:47AM 34.5160 131.5100 232° Southwest 477 549 38,000  Level FlightAware
07:47AM 34.4620 131.4270 232° Southwest 472 543 38,000  Level FlightAware
07:48AM 34.4150 131.3560 231° Southwest 472 543 38,000  Level FlightAware
07:49AM 34.3390 131.2400 232° Southwest 473 544 38,000  Level FlightAware
07:49AM 34.2840 131.1560 232° Southwest 474 545 38,000  Level FlightAware
07:50AM 34.2210 131.0610 231° Southwest 473 544 38,000  Level FlightAware
07:51AM 34.1620 130.9820 228° Southwest 473 544 38,000  Level FlightAware
07:52AM 34.0930 130.8950 226° Southwest 480 552 38,000  Level FlightAware
07:52AM 34.0460 130.8380 225° Southwest 478 550 38,000  Level FlightAware
07:53AM 33.9760 130.7530 225° Southwest 479 551 38,000  Level FlightAware
07:53AM 33.9140 130.6770 226° Southwest 479 551 38,000  Level FlightAware
07:54AM 33.8520 130.6020 225° Southwest 478 550 38,000  Level FlightAware
07:55AM 33.7970 130.5350 225° Southwest 479 551 38,000  Level FlightAware
07:56AM 33.6970 130.4140 225° Southwest 481 554 38,000  Level FlightAware
07:56AM 33.6420 130.3350 230° Southwest 480 552 38,000  Level FlightAware
07:57AM 33.6000 130.2450 241° Southwest 476 548 38,000  Level FlightAware
07:58AM 33.5620 130.1470 245° Southwest 477 549 38,000  Level FlightAware
07:59AM 33.5190 130.0390 244° Southwest 483 556 38,000  Level FlightAware
07:59AM 33.4850 129.9550 244° Southwest 484 557 38,000  Level FlightAware
08:00AM 33.4510 129.8700 244° Southwest 484 557 38,000  Level FlightAware
08:01AM 33.3980 129.7370 245° Southwest 487 560 38,000  Level FlightAware
08:01AM 33.3550 129.6280 245° Southwest 488 562 38,000  Level FlightAware
08:02AM 33.3160 129.5310 244° Southwest 488 562 38,000  Level FlightAware
08:03AM 33.2790 129.4320 246° West 486 559 38,000  Level FlightAware
08:03AM 33.2460 129.3180 251° West 489 563 38,000  Level FlightAware
08:04AM 33.2040 129.1790 250° West 487 560 38,000 -120 Level FlightAware
08:05AM 33.1730 129.0820 249° West 486 559 37,900 -780 Descending FlightAware
08:06AM 33.1350 128.9630 249° West 488 562 36,900 -1,320 Descending FlightAware
08:07AM 33.0910 128.8260 249° West 488 562 35,700 -1,320 Descending FlightAware
08:07AM 33.0540 128.7100 249° West 488 562 34,700 -1,380 Descending FlightAware
08:08AM 33.0260 128.6220 249° West 488 562 33,900 -1,380 Descending FlightAware
08:09AM 32.9790 128.4710 250° West 488 562 32,600 -1,320 Descending FlightAware
08:10AM 32.9480 128.3700 250° West 486 559 31,800 -1,200 Descending FlightAware
08:10AM 32.9160 128.2690 249° West 482 555 31,000 -600 Descending FlightAware
08:13AM 32.8389 127.9538 254° West  Level Estimated
08:13AM 32.8150 127.9490 254° West 473 544 30,000  Level FlightAware
08:13AM 32.7790 127.8340 250° West 472 543 30,000  Level FlightAware
08:14AM 32.7450 127.7290 249° West 471 542 30,000  Level FlightAware
08:15AM 32.7100 127.6190 249° West 473 544 30,000  Level FlightAware
08:16AM 32.6750 127.5100 249° West 474 545 30,000  Level FlightAware
08:16AM 32.6390 127.3990 249° West 475 547 30,000  Level FlightAware
08:17AM 32.6070 127.3020 249° West 477 549 30,000  Level FlightAware
08:18AM 32.5750 127.2020 249° West 478 550 30,000  Level FlightAware
08:18AM 32.5400 127.0950 249° West 479 551 30,000  Level FlightAware
08:19AM 32.5200 127.0330 249° West 479 551 30,000  Level FlightAware
08:19AM 32.4960 126.9580 249° West 479 551 30,000  Level FlightAware
08:21AM 32.4530 126.8270 249° West 479 551 30,000  Level FlightAware
08:21AM 32.4290 126.7520 249° West 479 551 30,000  Level FlightAware
08:22AM 32.4050 126.6770 249° West 479 551 30,000  Level FlightAware
08:22AM 32.3800 126.6020 248° West 479 551 30,000  Level FlightAware
08:23AM 32.3470 126.5000 249° West 479 551 30,000  Level FlightAware
08:24AM 32.3220 126.4230 249° West 479 551 30,000  Level FlightAware
08:24AM 32.2980 126.3480 249° West 479 551 30,000  Level FlightAware
08:25AM 32.2660 126.2480 249° West 479 551 30,000  Level FlightAware
08:26AM 32.2410 126.1710 249° West 479 551 30,000  Level FlightAware
08:27AM 32.2080 126.0720 249° West 479 551 30,000  Level FlightAware
08:27AM 32.1840 125.9970 249° West 479 551 30,000  Level FlightAware
08:28AM 32.1510 125.8970 249° West 479 551 30,000  Level FlightAware
08:31AM 32.0231 125.5445 247° West  Level FlightAware Approximate
08:32AM 31.9723 125.4057 247° West  Level FlightAware Approximate
08:33AM 31.9214 125.2670 247° West  Level FlightAware Approximate
08:34AM 31.8704 125.1284 247° West  Level FlightAware Approximate
08:35AM 31.8404 124.9816 257° West  Level Estimated
08:36AM 31.8056 124.8364 254° West  Level FlightAware Approximate
08:37AM 31.7707 124.6912 254° West  Level FlightAware Approximate
08:38AM 31.7356 124.5462 254° West  Level FlightAware Approximate
08:39AM 31.7057 124.3996 249° West  Level Estimated
08:40AM 31.6662 124.2479 254° West  Level FlightAware Approximate
08:41AM 31.6301 124.1034 254° West  Level FlightAware Approximate
08:42AM 31.5964 123.9583 261° West  Level FlightAware Approximate
08:43AM 31.5695 123.8113 254° West  Level FlightAware Approximate
08:44AM 31.5353 123.6663 255° West  Level FlightAware Approximate
08:45AM 31.5011 123.5213 255° West  Level FlightAware Approximate
08:46AM 31.4750 123.3745 257° West  Level FlightAware Approximate
08:47AM 31.4454 123.2283 256° West  Level FlightAware Approximate
08:48AM 31.4142 123.0825 256° West  Level FlightAware Approximate
08:49AM 31.3840 122.9365 257° West  Level FlightAware Approximate
08:50AM 31.3547 122.7903 257° West  Level FlightAware Approximate
08:51AM 31.3320 122.6425 258° West  Level FlightAware Approximate
08:52AM 31.3053 122.4957 258° West  Level FlightAware Approximate
08:53AM 31.2766 122.3495 257° West  Level FlightAware Approximate
08:54AM 31.2458 122.2040 249° West  Level FlightAware Approximate
08:55AM 31.2197 122.0579 262° West  Level FlightAware Approximate
08:56AM 31.1804 121.9159 259° West  Level FlightAware Approximate
08:57AM 31.1428 121.7924 270° West  Level Estimated
08:58AM 31.1428 121.7924 157° South  Level Estimated
08:59AM 31.1428 121.7924 157° South  Level Estimated
09:00AM 31.1428 121.7924 157° South  Level Estimated
09:01AM 31.1428 121.7924 157° South  Level Estimated
09:02AM 31.1428 121.7924 157° South  Level Estimated
09:03AM 31.1428 121.7924 157° South  Level Estimated
09:04AM 31.1428 121.7924 157° South  Level Estimated
09:05AM 31.1428 121.7924 157° South  Level Estimated
09:06AM 31.1428 121.7924 157° South  Level Estimated
09:07AM 31.1428 121.7924 157° South  Level Estimated
09:08AM 31.1428 121.7924 157° South  Level Estimated
09:09AM 31.1428 121.7924 157° South  Level Estimated
09:10AM 31.1428 121.7924 157° South  Level Estimated
09:11AM 31.1428 121.7924 157° South  Level Estimated
09:12AM 31.1428 121.7924 157° South  Level Estimated
09:13AM 31.1428 121.7924 157° South  Level Estimated
09:14AM 31.1428 121.7924 157° South  Level Estimated
09:15AM 31.1428 121.7924 157° South  Level Estimated